Time;durP1;ratioP1;P1;durP2;ratioP2;P2;SDS_P1;SDS_P2;PMS_P1;PMS_P2;Temp;Humidity;BMP_temperature;BMP_pressure;BME280_temperature;BME280_humidity;BME280_pressure;Samples;Min_cycle;Max_cycle;Signal;HPM_P1;HPM_P2
2023/08/16 00:01:13;;;;;;;10.15;7.53;;;15.10;90.70;;;;;;5070416;28;20536;-47
2023/08/16 00:03:40;;;;;;;9.45;6.82;;;15.10;90.70;;;;;;5054911;28;20032;-47
2023/08/16 00:06:14;;;;;;;9.13;7.00;;;15.00;91.00;;;;;;5067990;28;20036;-48
2023/08/16 00:08:41;;;;;;;8.95;7.20;;;15.10;90.90;;;;;;5070475;28;20085;-48
2023/08/16 00:11:10;;;;;;;8.23;7.32;;;15.10;90.80;;;;;;5069762;28;20037;-46
2023/08/16 00:13:39;;;;;;;7.95;7.15;;;15.00;90.60;;;;;;5070413;28;20052;-47
2023/08/16 00:16:06;;;;;;;13.02;7.90;;;15.00;90.90;;;;;;5072156;28;20021;-48
2023/08/16 00:18:36;;;;;;;10.85;7.70;;;15.00;90.80;;;;;;5074550;28;20406;-50
2023/08/16 00:21:06;;;;;;;13.65;7.70;;;15.00;90.60;;;;;;5073220;28;20033;-48
2023/08/16 00:23:32;;;;;;;12.15;7.82;;;14.90;90.50;;;;;;5073840;28;20032;-49
2023/08/16 00:25:59;;;;;;;13.32;8.65;;;15.00;90.60;;;;;;5056619;28;20507;-46
2023/08/16 00:28:27;;;;;;;10.95;8.13;;;15.00;90.90;;;;;;5074650;28;20032;-46
2023/08/16 00:30:54;;;;;;;13.38;8.80;;;15.00;91.10;;;;;;5073603;28;20029;-47
2023/08/16 00:33:21;;;;;;;14.50;8.02;;;15.00;91.00;;;;;;5072355;28;20514;-48
2023/08/16 00:35:51;;;;;;;12.50;8.38;;;15.10;91.20;;;;;;5071576;28;20116;-46
2023/08/16 00:38:18;;;;;;;8.48;6.75;;;15.00;91.20;;;;;;5073345;28;20135;-46
2023/08/16 00:40:51;;;;;;;13.15;7.53;;;15.00;91.30;;;;;;5074878;28;20067;-48
2023/08/16 00:43:18;;;;;;;17.48;9.32;;;15.10;91.20;;;;;;5055043;28;20135;-46
2023/08/16 00:45:48;;;;;;;14.40;9.82;;;15.10;91.30;;;;;;5073084;28;20070;-47
2023/08/16 00:48:15;;;;;;;14.90;8.73;;;15.10;91.30;;;;;;5073699;28;20038;-46
2023/08/16 00:50:42;;;;;;;11.73;8.60;;;15.10;91.30;;;;;;5063871;28;20040;-46
2023/08/16 00:53:09;;;;;;;10.85;8.45;;;15.10;91.40;;;;;;5039397;28;20375;-46
2023/08/16 00:55:39;;;;;;;10.80;8.55;;;15.00;91.30;;;;;;5073450;28;20039;-46
2023/08/16 00:58:07;;;;;;;9.13;6.38;;;14.90;91.20;;;;;;5073489;28;20025;-47
2023/08/16 01:00:34;;;;;;;8.32;6.45;;;14.90;91.20;;;;;;5043721;28;20028;-45
2023/08/16 01:03:01;;;;;;;8.93;7.82;;;14.90;91.10;;;;;;5074434;28;20103;-47
2023/08/16 01:05:28;;;;;;;10.70;7.00;;;14.80;91.00;;;;;;5055743;28;20025;-46
2023/08/16 01:07:57;;;;;;;8.68;7.40;;;14.80;90.90;;;;;;5056022;28;20024;-48
2023/08/16 01:10:30;;;;;;;8.30;7.37;;;14.70;90.80;;;;;;5073424;28;20073;-46
2023/08/16 01:13:10;;;;;;;8.38;7.35;;;14.70;90.90;;;;;;5073919;28;20080;-45
2023/08/16 01:15:40;;;;;;;11.68;7.40;;;14.60;90.90;;;;;;5072401;28;20107;-45
2023/08/16 01:18:08;;;;;;;11.82;8.15;;;14.60;91.20;;;;;;5073452;28;20671;-46
2023/08/16 01:20:36;;;;;;;12.07;8.13;;;14.70;91.10;;;;;;5062399;28;20032;-46
2023/08/16 01:23:09;;;;;;;9.10;7.75;;;14.70;91.30;;;;;;5073577;28;20025;-46
2023/08/16 01:25:45;;;;;;;9.32;7.10;;;14.70;91.20;;;;;;5072835;28;20074;-45
2023/08/16 01:28:13;;;;;;;9.80;8.32;;;14.70;91.40;;;;;;5054197;28;20032;-45
2023/08/16 01:30:40;;;;;;;8.95;8.05;;;14.70;91.40;;;;;;5071943;28;20024;-48
2023/08/16 01:33:08;;;;;;;11.10;8.23;;;14.60;91.30;;;;;;5072460;28;20050;-46
2023/08/16 01:35:38;;;;;;;10.57;7.05;;;14.60;91.20;;;;;;5060577;28;20025;-47
2023/08/16 01:38:07;;;;;;;;;;;14.60;91.20;;;;;;5053843;28;20076;-47
2023/08/16 01:41:05;;;;;;;10.60;7.22;;;14.60;91.00;;;;;;5062574;28;20279;-45
2023/08/16 01:43:33;;;;;;;10.82;7.07;;;14.60;91.00;;;;;;5055125;28;20043;-45
2023/08/16 01:46:04;;;;;;;8.05;7.25;;;14.50;90.90;;;;;;5071304;28;20043;-45
2023/08/16 01:48:32;;;;;;;9.40;7.60;;;14.50;90.70;;;;;;5073483;28;20035;-45
2023/08/16 01:50:59;;;;;;;8.27;7.38;;;14.40;90.70;;;;;;5040706;28;20442;-45
2023/08/16 01:53:26;;;;;;;7.70;6.93;;;14.40;90.80;;;;;;5066373;28;20033;-45
2023/08/16 01:55:55;;;;;;;7.78;6.38;;;14.40;90.90;;;;;;5050972;28;20082;-45
2023/08/16 01:58:24;;;;;;;9.70;7.05;;;14.40;91.00;;;;;;5073088;28;20025;-45
2023/08/16 02:00:54;;;;;;;9.43;7.22;;;14.40;90.90;;;;;;5065350;28;20087;-45
2023/08/16 02:03:21;;;;;;;11.45;7.40;;;14.30;90.90;;;;;;5067274;28;20024;-46
2023/08/16 02:05:48;;;;;;;11.48;7.97;;;14.40;91.00;;;;;;5070320;28;20041;-45
2023/08/16 02:08:15;;;;;;;8.35;7.43;;;14.30;91.00;;;;;;5071468;28;20353;-47
2023/08/16 02:10:44;;;;;;;8.00;6.63;;;14.40;91.30;;;;;;5072920;28;20036;-45
2023/08/16 02:13:11;;;;;;;10.93;8.05;;;14.30;91.20;;;;;;5071183;28;20028;-45
2023/08/16 02:15:38;;;;;;;9.23;8.10;;;14.30;91.30;;;;;;5071584;28;20029;-46
2023/08/16 02:18:06;;;;;;;11.73;8.68;;;14.30;91.40;;;;;;5063831;28;20043;-45
2023/08/16 02:20:33;;;;;;;8.52;7.68;;;14.30;91.30;;;;;;5069696;28;20064;-45
2023/08/16 02:23:00;;;;;;;9.70;7.43;;;14.30;91.40;;;;;;5072105;28;20029;-45
2023/08/16 02:25:28;;;;;;;8.85;7.60;;;14.30;91.40;;;;;;5072796;28;20460;-45
2023/08/16 02:27:54;;;;;;;10.95;7.05;;;14.30;91.30;;;;;;5057949;28;20071;-45
2023/08/16 02:30:21;;;;;;;13.77;7.13;;;14.30;91.30;;;;;;5064408;28;20032;-44
2023/08/16 02:32:51;;;;;;;10.90;8.48;;;14.30;91.30;;;;;;5054079;28;20029;-45
2023/08/16 02:35:22;;;;;;;10.63;7.72;;;14.30;91.40;;;;;;5072419;28;20048;-44
2023/08/16 02:37:49;;;;;;;10.10;8.00;;;14.30;91.70;;;;;;5071009;28;20095;-45
2023/08/16 02:40:20;;;;;;;8.93;8.00;;;14.30;91.60;;;;;;5071671;28;20392;-48
2023/08/16 02:42:49;;;;;;;11.52;8.32;;;14.30;91.50;;;;;;5071907;28;20032;-44
2023/08/16 02:45:19;;;;;;;13.13;8.48;;;14.30;91.40;;;;;;5070598;28;20407;-46
2023/08/16 02:47:47;;;;;;;10.05;7.95;;;14.20;91.30;;;;;;5071837;28;20093;-46
2023/08/16 02:50:13;;;;;;;13.15;8.82;;;14.20;91.50;;;;;;5063728;28;20032;-44
2023/08/16 02:52:40;;;;;;;9.68;8.30;;;14.20;91.50;;;;;;5071522;28;20319;-45
2023/08/16 02:55:07;;;;;;;9.90;8.13;;;14.20;91.40;;;;;;5072321;28;20020;-45
2023/08/16 02:57:37;;;;;;;10.07;7.57;;;14.20;91.40;;;;;;5071808;28;20103;-45
2023/08/16 03:00:06;;;;;;;;;;;14.20;91.50;;;;;;5070352;28;20047;-44
2023/08/16 03:02:34;;;;;;;10.75;8.70;;;14.30;91.70;;;;;;5070567;28;19904;-46
2023/08/16 03:05:01;;;;;;;8.88;7.95;;;14.30;91.60;;;;;;5060104;28;20020;-45
2023/08/16 03:07:28;;;;;;;11.82;8.00;;;14.20;91.40;;;;;;5071454;28;20472;-44
2023/08/16 03:09:55;;;;;;;10.40;8.10;;;14.20;91.50;;;;;;5071642;28;20103;-44
2023/08/16 03:12:22;;;;;;;10.32;8.15;;;14.20;91.50;;;;;;5071908;28;20353;-45
2023/08/16 03:14:51;;;;;;;10.32;8.55;;;14.20;91.60;;;;;;5070588;28;20024;-45
2023/08/16 03:17:18;;;;;;;16.98;8.50;;;14.30;91.70;;;;;;5059649;28;20031;-44
2023/08/16 03:19:45;;;;;;;8.95;8.10;;;14.30;91.90;;;;;;5070477;28;20047;-44
2023/08/16 03:22:12;;;;;;;8.82;7.93;;;14.30;91.90;;;;;;5071984;28;20029;-45
2023/08/16 03:24:39;;;;;;;10.35;8.90;;;14.30;91.90;;;;;;5060997;28;20496;-44
2023/08/16 03:27:05;;;;;;;9.55;7.82;;;14.30;91.90;;;;;;5071387;28;20481;-45
2023/08/16 03:29:34;;;;;;;9.75;8.75;;;14.30;92.00;;;;;;5071479;28;20052;-44
2023/08/16 03:32:01;;;;;;;9.37;8.47;;;14.30;92.10;;;;;;5067657;28;20033;-44
2023/08/16 03:34:30;;;;;;;12.48;8.63;;;14.30;92.00;;;;;;5052774;28;20021;-43
2023/08/16 03:36:57;;;;;;;8.95;7.25;;;14.20;91.80;;;;;;5070546;28;20090;-44
2023/08/16 03:39:23;;;;;;;8.90;7.82;;;14.20;91.90;;;;;;5070553;28;20049;-44
2023/08/16 03:41:49;;;;;;;12.48;8.77;;;14.20;91.90;;;;;;5053127;28;20035;-44
2023/08/16 03:44:16;;;;;;;11.93;8.45;;;14.20;91.80;;;;;;5071788;28;20029;-44
2023/08/16 03:46:43;;;;;;;13.32;8.75;;;14.10;91.90;;;;;;5050302;28;20476;-44
2023/08/16 03:49:10;;;;;;;9.23;8.00;;;14.10;91.90;;;;;;5072049;28;20113;-45
2023/08/16 03:51:39;;;;;;;11.10;8.90;;;14.10;91.90;;;;;;5075374;28;20032;-44
2023/08/16 03:54:05;;;;;;;10.68;9.55;;;14.10;91.90;;;;;;5075546;28;20039;-44
2023/08/16 03:56:32;;;;;;;11.85;9.10;;;14.10;92.10;;;;;;5069750;28;20555;-44
2023/08/16 03:58:59;;;;;;;10.50;9.40;;;14.10;92.10;;;;;;5075709;28;20039;-44
2023/08/16 04:01:25;;;;;;;8.93;8.02;;;14.10;92.00;;;;;;5066839;28;20048;-43
2023/08/16 04:03:52;;;;;;;10.63;9.52;;;14.10;92.10;;;;;;5073392;28;20032;-46
2023/08/16 04:06:20;;;;;;;8.70;7.80;;;14.10;92.00;;;;;;5074382;28;20108;-44
2023/08/16 04:08:48;;;;;;;9.68;8.70;;;14.00;91.80;;;;;;5075646;28;20055;-44
2023/08/16 04:11:15;;;;;;;9.95;8.30;;;14.00;91.80;;;;;;5056161;28;20029;-44
2023/08/16 04:13:42;;;;;;;9.65;8.00;;;13.90;91.60;;;;;;5075264;28;20023;-45
2023/08/16 04:16:08;;;;;;;9.57;7.80;;;13.90;91.70;;;;;;5074532;28;20028;-43
2023/08/16 04:18:35;;;;;;;9.57;8.65;;;13.90;91.70;;;;;;5075260;28;20418;-43
2023/08/16 04:21:02;;;;;;;9.98;8.95;;;13.90;91.70;;;;;;5071780;28;20112;-43
2023/08/16 04:23:29;;;;;;;9.98;8.30;;;13.90;91.70;;;;;;5075029;28;20323;-43
2023/08/16 04:25:56;;;;;;;11.27;9.38;;;13.90;91.80;;;;;;5073354;28;20433;-43
2023/08/16 04:28:25;;;;;;;10.85;8.80;;;13.90;91.70;;;;;;5056270;28;20485;-45
2023/08/16 04:30:52;;;;;;;8.63;7.82;;;13.90;91.80;;;;;;5043038;28;20033;-45
2023/08/16 04:33:19;;;;;;;13.80;10.15;;;13.90;91.80;;;;;;5037379;28;20040;-43
2023/08/16 04:35:46;;;;;;;10.63;8.95;;;13.90;91.70;;;;;;5067149;28;20434;-43
2023/08/16 04:38:12;;;;;;;17.13;10.07;;;13.90;91.70;;;;;;5073952;28;20415;-44
2023/08/16 04:40:39;;;;;;;9.98;8.73;;;13.90;91.80;;;;;;5067998;28;20033;-43
2023/08/16 04:43:06;;;;;;;11.07;9.52;;;13.90;91.80;;;;;;5066417;28;20408;-44
2023/08/16 04:45:32;;;;;;;11.07;9.98;;;13.90;91.90;;;;;;5074095;28;20017;-43
2023/08/16 04:48:01;;;;;;;11.82;10.70;;;13.80;92.10;;;;;;5073602;28;20119;-45
2023/08/16 04:50:28;;;;;;;11.07;9.75;;;13.90;92.20;;;;;;5073715;28;20360;-44
2023/08/16 04:52:57;;;;;;;10.98;8.90;;;13.90;92.30;;;;;;5073864;28;20040;-43
2023/08/16 04:55:24;;;;;;;11.02;9.05;;;13.90;92.30;;;;;;5072096;28;20098;-44
2023/08/16 04:57:53;;;;;;;11.02;8.70;;;13.90;92.40;;;;;;5073514;28;20032;-44
2023/08/16 05:00:20;;;;;;;10.35;8.70;;;13.90;92.40;;;;;;5070761;28;20039;-43
2023/08/16 05:02:46;;;;;;;9.80;8.43;;;13.90;92.50;;;;;;5072200;28;20307;-44
2023/08/16 05:05:14;;;;;;;9.93;8.93;;;13.90;92.60;;;;;;5074445;28;20083;-44
2023/08/16 05:07:40;;;;;;;12.57;9.32;;;14.00;92.60;;;;;;5055978;28;20066;-44
2023/08/16 05:10:07;;;;;;;10.50;8.63;;;14.00;92.70;;;;;;5073151;28;20167;-44
2023/08/16 05:12:34;;;;;;;10.05;8.85;;;14.10;92.70;;;;;;5056403;28;20024;-44
2023/08/16 05:15:01;;;;;;;10.65;8.85;;;14.10;92.60;;;;;;5050755;28;20472;-44
2023/08/16 05:17:28;;;;;;;9.70;8.70;;;14.10;92.70;;;;;;5071224;28;20075;-44
2023/08/16 05:19:54;;;;;;;12.30;9.32;;;14.20;92.70;;;;;;5055267;28;20344;-43
2023/08/16 05:22:24;;;;;;;11.02;9.30;;;14.20;92.80;;;;;;5073408;28;20029;-44
2023/08/16 05:24:51;;;;;;;11.98;10.13;;;14.20;92.80;;;;;;5073715;28;20032;-44
2023/08/16 05:27:18;;;;;;;10.18;9.18;;;14.30;92.90;;;;;;5072961;28;20705;-44
2023/08/16 05:29:44;;;;;;;10.45;7.68;;;14.30;92.90;;;;;;5070264;28;20033;-44
2023/08/16 05:32:14;;;;;;;11.23;8.48;;;14.30;92.90;;;;;;5072973;28;20369;-43
2023/08/16 05:34:41;;;;;;;8.55;7.75;;;14.40;92.80;;;;;;5073128;28;20013;-44
2023/08/16 05:37:09;;;;;;;9.98;7.78;;;14.40;92.70;;;;;;5073716;28;20036;-44
2023/08/16 05:39:36;;;;;;;14.00;9.45;;;14.40;92.70;;;;;;5059172;28;20045;-43
2023/08/16 05:42:05;;;;;;;9.40;8.40;;;14.40;92.80;;;;;;5069130;28;20024;-43
2023/08/16 05:44:32;;;;;;;10.50;8.32;;;14.50;92.80;;;;;;5072713;28;20039;-43
2023/08/16 05:46:59;;;;;;;10.50;9.40;;;14.50;92.80;;;;;;5072597;28;20116;-44
2023/08/16 05:49:26;;;;;;;11.73;8.30;;;14.60;92.70;;;;;;5072210;28;20028;-44
2023/08/16 05:51:51;;;;;;;8.95;8.10;;;14.60;92.90;;;;;;5073301;28;20056;-43
2023/08/16 05:54:18;;;;;;;9.45;8.55;;;14.70;92.90;;;;;;5071770;28;20052;-44
2023/08/16 05:56:45;;;;;;;11.02;9.93;;;14.80;92.90;;;;;;5070725;28;20039;-44
2023/08/16 05:59:12;;;;;;;10.32;9.25;;;14.90;93.00;;;;;;5071220;28;20099;-44
2023/08/16 06:01:38;;;;;;;9.57;7.82;;;15.00;93.00;;;;;;5072298;28;20036;-44
2023/08/16 06:04:08;;;;;;;10.77;9.10;;;15.00;93.00;;;;;;5068946;28;20033;-45
2023/08/16 06:06:35;;;;;;;10.38;8.48;;;15.10;93.00;;;;;;5071573;28;20437;-44
2023/08/16 06:09:02;;;;;;;9.85;8.65;;;15.20;92.90;;;;;;5072169;28;20064;-44
2023/08/16 06:11:29;;;;;;;11.50;10.13;;;15.20;92.90;;;;;;5072177;28;20025;-44
2023/08/16 06:13:55;;;;;;;13.25;9.48;;;15.30;92.90;;;;;;5070968;28;20090;-44
2023/08/16 06:16:22;;;;;;;13.88;9.40;;;15.30;92.90;;;;;;5041328;28;20033;-44
2023/08/16 06:18:49;;;;;;;10.75;8.27;;;15.30;93.00;;;;;;5052763;28;20048;-44
2023/08/16 06:21:18;;;;;;;8.88;8.00;;;15.30;93.00;;;;;;5064485;28;20032;-44
2023/08/16 06:23:48;;;;;;;10.93;8.90;;;15.40;93.00;;;;;;5070624;28;20037;-44
2023/08/16 06:26:14;;;;;;;8.45;7.65;;;15.40;93.00;;;;;;5072371;28;20032;-44
2023/08/16 06:28:41;;;;;;;11.35;9.63;;;15.60;93.10;;;;;;5055347;28;20090;-44
2023/08/16 06:31:07;;;;;;;10.05;8.32;;;15.60;93.10;;;;;;5069726;28;20032;-44
2023/08/16 06:33:32;;;;;;;11.73;8.73;;;15.70;93.10;;;;;;5072173;28;20031;-44
2023/08/16 06:35:59;;;;;;;11.32;6.88;;;15.80;93.20;;;;;;5070853;28;20103;-45
2023/08/16 06:38:26;;;;;;;9.95;6.70;;;15.90;93.20;;;;;;5070651;28;20056;-44
2023/08/16 06:40:55;;;;;;;10.02;7.45;;;16.00;93.30;;;;;;5071128;28;20024;-44
2023/08/16 06:43:23;;;;;;;9.50;7.13;;;16.10;93.30;;;;;;5056127;28;20043;-45
2023/08/16 06:45:56;;;;;;;8.20;6.38;;;16.20;93.20;;;;;;5070753;28;20060;-43
2023/08/16 06:48:25;;;;;;;11.00;7.68;;;16.30;93.20;;;;;;5071276;28;20037;-44
2023/08/16 06:50:53;;;;;;;9.98;6.90;;;16.40;93.20;;;;;;5050308;28;20036;-43
2023/08/16 06:53:20;;;;;;;7.93;5.53;;;16.50;93.30;;;;;;5065943;28;20031;-44
2023/08/16 06:55:47;;;;;;;6.55;4.75;;;16.80;93.30;;;;;;5068144;28;20310;-43
2023/08/16 06:58:13;;;;;;;7.47;5.63;;;16.90;93.30;;;;;;5047788;28;20021;-44
2023/08/16 07:00:45;;;;;;;6.60;4.15;;;17.20;93.20;;;;;;5056960;28;20401;-45
2023/08/16 07:03:12;;;;;;;6.57;4.55;;;17.40;92.90;;;;;;5071581;28;20021;-44
2023/08/16 07:05:39;;;;;;;4.28;3.20;;;17.40;92.60;;;;;;5071082;28;20021;-44
2023/08/16 07:08:06;;;;;;;7.30;3.85;;;17.50;92.40;;;;;;5070363;28;20059;-44
2023/08/16 07:10:33;;;;;;;5.78;4.15;;;17.60;91.70;;;;;;5070685;28;20031;-44
2023/08/16 07:13:02;;;;;;;8.90;5.68;;;17.60;91.60;;;;;;5069072;28;20449;-44
2023/08/16 07:15:29;;;;;;;9.77;4.93;;;17.60;91.30;;;;;;5067567;28;20032;-44
2023/08/16 07:17:56;;;;;;;7.43;4.55;;;17.60;90.90;;;;;;5053576;28;20112;-45
2023/08/16 07:20:23;;;;;;;6.57;2.92;;;17.60;90.60;;;;;;5064928;28;20024;-43
2023/08/16 07:22:50;;;;;;;7.80;2.40;;;17.60;89.70;;;;;;5068068;28;20078;-45
2023/08/16 07:25:17;;;;;;;7.22;2.97;;;17.60;89.50;;;;;;5071244;28;20048;-45
2023/08/16 07:27:43;;;;;;;6.22;2.58;;;17.70;89.40;;;;;;5075162;28;20024;-46
2023/08/16 07:30:12;;;;;;;6.72;2.33;;;18.00;89.80;;;;;;5072346;28;20358;-44
2023/08/16 07:32:38;;;;;;;6.23;2.77;;;18.30;90.20;;;;;;5071793;28;20185;-45
2023/08/16 07:35:05;;;;;;;4.40;2.33;;;18.50;89.30;;;;;;5073309;28;20434;-45
2023/08/16 07:37:34;;;;;;;6.30;2.08;;;18.80;88.80;;;;;;5074214;28;20078;-46
2023/08/16 07:40:04;;;;;;;7.63;2.43;;;18.80;87.30;;;;;;5069331;28;20094;-45
2023/08/16 07:42:30;;;;;;;4.35;1.92;;;19.10;87.50;;;;;;5072631;28;20107;-47
2023/08/16 07:44:58;;;;;;;7.05;1.77;;;19.20;84.40;;;;;;5052809;28;20045;-46
2023/08/16 07:47:28;;;;;;;5.40;1.52;;;19.10;83.00;;;;;;5056204;28;20350;-46
2023/08/16 07:49:55;;;;;;;3.97;2.10;;;19.30;83.90;;;;;;5075034;28;20122;-46
2023/08/16 07:52:21;;;;;;;4.35;2.13;;;19.30;82.80;;;;;;5074016;28;20082;-49
2023/08/16 07:54:48;;;;;;;3.63;1.52;;;19.40;83.20;;;;;;5074263;28;20025;-48
2023/08/16 07:57:15;;;;;;;3.63;1.40;;;19.70;84.40;;;;;;5067082;28;20508;-47
2023/08/16 07:59:44;;;;;;;5.78;1.52;;;19.70;81.40;;;;;;5056903;28;20032;-49
2023/08/16 08:02:09;;;;;;;6.97;1.42;;;19.80;80.70;;;;;;5073793;28;20103;-52
2023/08/16 08:04:38;;;;;;;4.50;1.45;;;20.10;78.60;;;;;;5057910;28;20120;-49
2023/08/16 08:07:04;;;;;;;6.40;1.70;;;20.60;80.20;;;;;;5055437;28;20033;-49
2023/08/16 08:09:31;;;;;;;3.35;1.23;;;21.10;77.70;;;;;;5075605;28;20094;-49
2023/08/16 08:11:58;;;;;;;4.35;1.20;;;21.60;76.00;;;;;;5068733;28;20033;-49
2023/08/16 08:14:25;;;;;;;4.07;1.20;;;22.10;75.30;;;;;;5073263;28;20150;-51
2023/08/16 08:16:53;;;;;;;4.47;1.10;;;22.60;76.40;;;;;;5043530;28;20029;-50
2023/08/16 08:19:20;;;;;;;5.63;1.40;;;22.90;69.50;;;;;;5054737;28;20017;-50
2023/08/16 08:21:49;;;;;;;4.60;1.40;;;23.10;66.80;;;;;;5070860;28;20028;-50
2023/08/16 08:24:18;;;;;;;5.30;2.03;;;23.50;70.20;;;;;;5074682;28;20052;-50
2023/08/16 08:26:46;;;;;;;2.53;1.08;;;23.80;64.20;;;;;;5072132;28;20032;-53
2023/08/16 08:29:12;;;;;;;4.70;1.00;;;23.80;65.50;;;;;;5036080;28;20426;-51
2023/08/16 08:31:39;;;;;;;4.90;1.05;;;23.40;65.00;;;;;;5062057;28;20029;-51
2023/08/16 08:34:08;;;;;;;2.35;1.08;;;23.30;65.40;;;;;;5067377;28;20312;-53
2023/08/16 08:36:37;;;;;;;4.45;0.95;;;23.10;67.30;;;;;;5067168;28;20049;-52
2023/08/16 08:39:06;;;;;;;5.25;1.10;;;23.10;66.40;;;;;;5057458;28;20095;-52
2023/08/16 08:41:35;;;;;;;5.72;1.42;;;22.70;64.80;;;;;;5062912;28;20433;-52
2023/08/16 08:44:01;;;;;;;3.22;0.90;;;22.40;66.60;;;;;;5073763;28;20051;-52
2023/08/16 08:46:32;;;;;;;3.80;0.80;;;22.60;70.60;;;;;;5073187;28;20108;-56
2023/08/16 08:49:00;;;;;;;3.78;1.08;;;22.70;67.20;;;;;;5073883;28;20465;-53
2023/08/16 08:51:31;;;;;;;2.95;1.05;;;22.90;67.70;;;;;;5056862;28;20113;-52
2023/08/16 08:53:58;;;;;;;3.63;1.23;;;22.90;67.00;;;;;;5073692;28;20024;-52
2023/08/16 08:56:30;;;;;;;5.30;1.45;;;22.80;68.10;;;;;;5068132;28;20028;-54
2023/08/16 08:59:01;;;;;;;2.45;1.20;;;22.70;68.60;;;;;;5041983;28;20094;-54
2023/08/16 09:01:31;;;;;;;6.40;1.33;;;22.40;68.60;;;;;;5072292;28;20036;-54
2023/08/16 09:04:03;;;;;;;4.93;1.25;;;22.10;69.40;;;;;;5068777;28;20071;-55
2023/08/16 09:06:29;;;;;;;3.92;0.90;;;21.70;69.80;;;;;;5069296;28;20400;-53
2023/08/16 09:08:56;;;;;;;4.32;1.17;;;21.50;71.80;;;;;;5074309;28;20033;-52
2023/08/16 09:11:24;;;;;;;5.63;1.20;;;21.40;72.40;;;;;;5071587;28;20024;-54
2023/08/16 09:13:51;;;;;;;3.53;1.20;;;21.10;71.90;;;;;;5062709;28;20037;-52
2023/08/16 09:16:21;;;;;;;5.65;1.48;;;20.90;72.70;;;;;;5064885;28;20091;-55
2023/08/16 09:18:51;;;;;;;5.88;1.75;;;20.80;73.40;;;;;;5054015;28;20108;-55
2023/08/16 09:21:24;;;;;;;3.63;1.65;;;20.80;73.80;;;;;;5053988;28;20099;-53
2023/08/16 09:23:58;;;;;;;7.35;2.10;;;20.90;75.90;;;;;;5056484;28;20074;-57
2023/08/16 09:26:29;;;;;;;3.40;1.08;;;21.50;77.40;;;;;;5048385;28;20029;-55
2023/08/16 09:28:59;;;;;;;3.85;1.35;;;22.30;75.70;;;;;;5050893;28;20052;-57
2023/08/16 09:31:37;;;;;;;5.10;1.17;;;22.70;72.50;;;;;;5063482;28;20533;-56
2023/08/16 09:34:09;;;;;;;6.38;1.65;;;23.10;68.50;;;;;;5068301;28;20036;-56
2023/08/16 09:36:36;;;;;;;5.32;1.80;;;23.70;73.90;;;;;;5058811;28;20124;-57
2023/08/16 09:39:24;;;;;;;3.53;1.17;;;24.10;69.30;;;;;;5072493;28;20048;-55
2023/08/16 09:41:51;;;;;;;6.32;1.20;;;24.30;66.90;;;;;;5064555;28;20032;-55
2023/08/16 09:44:19;;;;;;;6.65;1.85;;;23.90;66.00;;;;;;5063004;28;20044;-55
2023/08/16 09:46:46;;;;;;;4.38;1.10;;;23.40;64.90;;;;;;5059924;28;20039;-53
2023/08/16 09:49:15;;;;;;;4.45;1.20;;;23.20;67.70;;;;;;5067262;28;20028;-56
2023/08/16 09:51:45;;;;;;;3.00;0.88;;;23.10;70.30;;;;;;5070952;28;20040;-54
2023/08/16 09:54:17;;;;;;;4.05;1.27;;;22.80;67.80;;;;;;5071203;28;20043;-54
2023/08/16 09:56:44;;;;;;;3.60;1.20;;;22.30;68.80;;;;;;5053929;28;20047;-55
2023/08/16 09:59:12;;;;;;;5.63;1.73;;;22.10;70.20;;;;;;5071902;28;20027;-51
2023/08/16 10:01:39;;;;;;;3.90;1.45;;;22.00;71.70;;;;;;5054057;28;20039;-55
2023/08/16 10:04:11;;;;;;;5.88;1.80;;;22.30;74.00;;;;;;5060368;28;20029;-55
2023/08/16 10:06:43;;;;;;;4.25;1.45;;;22.60;71.70;;;;;;5067397;28;20036;-54
2023/08/16 10:09:12;;;;;;;6.63;1.92;;;23.00;72.30;;;;;;5066658;28;20389;-57
2023/08/16 10:11:42;;;;;;;6.03;1.73;;;23.20;67.30;;;;;;5054021;28;20572;-53
2023/08/16 10:14:10;;;;;;;5.60;1.42;;;23.50;71.80;;;;;;5072205;28;20123;-54
2023/08/16 10:16:41;;;;;;;6.32;1.63;;;23.70;69.00;;;;;;5070746;28;20396;-57
2023/08/16 10:19:13;;;;;;;5.78;1.60;;;23.80;68.50;;;;;;5050137;28;20121;-56
2023/08/16 10:21:46;;;;;;;3.47;1.20;;;24.00;69.30;;;;;;5067377;28;20029;-55
2023/08/16 10:24:15;;;;;;;7.57;2.00;;;24.20;69.80;;;;;;5071072;28;20111;-56
2023/08/16 10:26:46;;;;;;;;;;;24.20;69.30;;;;;;5063404;28;20763;-53
2023/08/16 10:29:17;;;;;;;7.00;2.63;;;24.40;69.10;;;;;;5056710;28;19919;-53
2023/08/16 10:31:46;;;;;;;8.48;3.08;;;24.40;66.10;;;;;;5038564;28;20041;-56
2023/08/16 10:34:16;;;;;;;5.07;1.75;;;24.30;68.00;;;;;;5068328;28;20048;-56
2023/08/16 10:36:43;;;;;;;5.10;1.35;;;24.20;66.30;;;;;;5061244;28;20386;-55
2023/08/16 10:39:23;;;;;;;7.28;2.65;;;24.00;66.10;;;;;;5071098;28;20147;-58
2023/08/16 10:41:53;;;;;;;4.35;1.33;;;24.20;67.80;;;;;;5071978;28;20349;-57
2023/08/16 10:44:24;;;;;;;7.05;3.33;;;24.30;67.70;;;;;;5054070;28;20043;-54
2023/08/16 10:46:51;;;;;;;4.07;1.70;;;24.30;67.90;;;;;;5069759;28;20028;-56
2023/08/16 10:49:22;;;;;;;5.78;1.73;;;24.40;68.40;;;;;;5054065;28;20032;-54
2023/08/16 10:51:53;;;;;;;6.97;4.78;;;24.20;62.80;;;;;;5070731;28;20021;-58
2023/08/16 10:54:32;;;;;;;7.25;1.95;;;24.30;65.20;;;;;;5070242;28;20020;-57
2023/08/16 10:57:07;;;;;;;4.40;1.20;;;24.30;65.30;;;;;;5069291;28;20029;-56
2023/08/16 10:59:38;;;;;;;4.93;1.58;;;24.50;65.90;;;;;;5070468;28;20025;-57
2023/08/16 11:02:15;;;;;;;6.88;1.63;;;24.50;62.70;;;;;;5062942;28;20100;-56
2023/08/16 11:04:42;;;;;;;6.55;1.73;;;24.60;65.90;;;;;;5053308;28;20111;-57
2023/08/16 11:07:10;;;;;;;8.43;1.95;;;24.40;65.20;;;;;;5056997;28;20028;-55
2023/08/16 11:09:37;;;;;;;5.90;1.33;;;24.30;64.20;;;;;;5070938;28;20029;-55
2023/08/16 11:12:06;;;;;;;4.57;1.42;;;24.30;65.10;;;;;;5071094;28;20025;-56
2023/08/16 11:14:35;;;;;;;3.63;1.45;;;24.20;66.20;;;;;;5054001;28;20111;-58
2023/08/16 11:17:03;;;;;;;;;;;24.00;65.70;;;;;;5066423;28;20048;-56
2023/08/16 11:19:30;;;;;;;4.10;1.35;;;24.00;66.00;;;;;;5071435;28;19951;-55
2023/08/16 11:22:03;;;;;;;5.45;1.40;;;23.90;64.80;;;;;;5052191;28;20519;-56
2023/08/16 11:24:29;;;;;;;2.72;1.48;;;23.90;64.80;;;;;;5052655;28;20032;-58
2023/08/16 11:26:55;;;;;;;4.43;1.17;;;23.80;64.70;;;;;;5054122;28;20028;-55
2023/08/16 11:29:22;;;;;;;5.57;1.65;;;23.70;65.10;;;;;;5070592;28;20488;-56
2023/08/16 11:31:55;;;;;;;3.75;1.10;;;23.70;66.40;;;;;;5070202;28;20033;-56
2023/08/16 11:34:22;;;;;;;5.93;1.58;;;23.80;67.60;;;;;;5067718;28;20476;-57
2023/08/16 11:36:49;;;;;;;5.53;1.95;;;23.80;64.70;;;;;;5066364;28;20033;-57
2023/08/16 11:39:22;;;;;;;4.97;1.50;;;23.80;66.60;;;;;;5050726;28;20052;-55
2023/08/16 11:41:51;;;;;;;3.80;1.27;;;23.80;67.00;;;;;;5068925;28;20029;-55
2023/08/16 11:44:18;;;;;;;4.20;1.38;;;23.70;65.00;;;;;;5071059;28;20025;-54
2023/08/16 11:46:47;;;;;;;3.00;1.10;;;23.70;67.30;;;;;;5071118;28;20535;-56
2023/08/16 11:49:18;;;;;;;3.75;1.35;;;23.50;64.30;;;;;;5070928;28;20136;-58
2023/08/16 11:51:45;;;;;;;7.93;1.52;;;23.40;65.30;;;;;;5061373;28;20033;-57
2023/08/16 11:54:24;;;;;;;7.18;1.60;;;23.40;66.50;;;;;;5066031;28;20807;-55
2023/08/16 11:56:51;;;;;;;4.33;1.67;;;23.40;67.20;;;;;;5067198;28;20444;-55
2023/08/16 11:59:35;;;;;;;4.57;1.02;;;23.40;67.30;;;;;;5049033;28;20434;-56
2023/08/16 12:02:12;;;;;;;11.15;1.50;;;23.40;67.50;;;;;;5049482;28;20070;-57
2023/08/16 12:04:44;;;;;;;3.53;1.38;;;23.30;67.90;;;;;;5070883;28;20334;-56
2023/08/16 12:07:11;;;;;;;5.30;1.80;;;23.10;68.60;;;;;;5033063;28;20424;-54
2023/08/16 12:09:41;;;;;;;8.00;1.63;;;23.00;68.20;;;;;;5055392;28;20473;-57
2023/08/16 12:12:10;;;;;;;4.95;1.40;;;23.00;68.90;;;;;;5069922;28;20554;-55
2023/08/16 12:14:39;;;;;;;6.50;1.92;;;22.90;68.90;;;;;;5056148;28;20024;-58
2023/08/16 12:17:08;;;;;;;4.72;1.55;;;22.90;70.50;;;;;;5067713;28;20068;-55
2023/08/16 12:19:35;;;;;;;3.28;1.25;;;22.80;68.90;;;;;;5071826;28;20089;-58
2023/08/16 12:22:02;;;;;;;5.32;1.80;;;22.90;68.70;;;;;;5065528;28;20053;-58
2023/08/16 12:24:31;;;;;;;6.05;1.70;;;22.80;68.00;;;;;;5070630;28;20090;-56
2023/08/16 12:27:02;;;;;;;12.65;1.77;;;22.90;70.00;;;;;;5071756;28;20028;-55
2023/08/16 12:29:29;;;;;;;5.13;1.42;;;22.90;69.80;;;;;;5072018;28;20028;-56
2023/08/16 12:31:56;;;;;;;6.20;1.23;;;22.80;65.40;;;;;;5071468;28;20032;-56
2023/08/16 12:34:23;;;;;;;6.20;2.10;;;22.70;67.00;;;;;;5075075;28;20021;-55
2023/08/16 12:36:50;;;;;;;5.95;1.30;;;22.60;67.60;;;;;;5071506;28;20530;-55
2023/08/16 12:39:17;;;;;;;4.95;1.65;;;22.50;65.80;;;;;;5056617;28;20041;-57
2023/08/16 12:41:47;;;;;;;7.07;1.38;;;22.50;68.60;;;;;;5071848;28;20029;-55
2023/08/16 12:44:17;;;;;;;6.00;1.38;;;22.40;65.20;;;;;;5043194;28;20028;-57
2023/08/16 12:46:44;;;;;;;6.15;1.10;;;22.40;67.60;;;;;;5066133;28;20025;-54
2023/08/16 12:49:11;;;;;;;3.90;1.20;;;22.30;66.50;;;;;;5053414;28;20035;-56
2023/08/16 12:51:38;;;;;;;5.32;1.60;;;22.30;67.20;;;;;;5073686;28;20378;-55